map of OCC home
OCC - Airport
Location
City:  El Coca, Oreliana, Ecuador
Name:Francisco de Oreliana
ICAO:SECO
IATA:OCC

Details
Type:Airport (Aerodrome, Airfield)
Latitude:027'46"S (-0.462885)
Longitude:7659'13"W (-76.986841)
Datum:WGS 1984
Elevation:834 ft (254 m)
Variation:4.63W (WMM2015 magnetic declination)
-0.16 annual change
Runways:1
Longest:6760 × 90 ft (2060 × 27.5 m), paved

Time
Time Zone:UTC-5
Local Time:

Weather
METAR:SECO 152300Z 12003KT 9999 SCT020 31/24 Q1005 RMK A2970

Related Locations
Nearby:
Farthest:WIDT: 12386 mi / 19933 km
Raja Haji Abdullah [Raja Haji Abdullah Airport], KR, ID

Find:

   beyond  
but within

Other Information
Maps:
NOTAMs:
Links:
Sources:

  
  • flag of Ecuador
  • flag of Oreliana
  

Sectional Chart

Flight Planning
at skyvector.com

Satellite Image

Google Maps Satellite view

 

Copyright © 2004-2018 Karl L. Swartz. All rights reserved.
The Great Circle Mapper name and logo are trademarks of the Great Circle Mapper.
All other trademarks mentioned herein belong to their respective owners.
Please see credits for attibutions and further copyright information.

  Follow gcmap on Facebook Follow gcmap on Twitter Follow gcmap on Google+ GCmap on LinkedIn

hCard Microformat

Geo Microformat